sensor_id;sensor_type;location;lat;lon;timestamp;P1;durP1;ratioP1;P2;durP2;ratioP2
19605;SDS011;9950;50.168;8.210;2023-08-24T00:00:38;6.22;;;3.25;;
19605;SDS011;9950;50.168;8.210;2023-08-24T00:03:05;5.45;;;3.63;;
19605;SDS011;9950;50.168;8.210;2023-08-24T00:05:33;5.03;;;3.65;;
19605;SDS011;9950;50.168;8.210;2023-08-24T00:08:02;4.05;;;3.00;;
19605;SDS011;9950;50.168;8.210;2023-08-24T00:10:29;8.93;;;4.05;;
19605;SDS011;9950;50.168;8.210;2023-08-24T00:12:57;3.45;;;3.15;;
19605;SDS011;9950;50.168;8.210;2023-08-24T00:15:27;4.75;;;3.42;;
19605;SDS011;9950;50.168;8.210;2023-08-24T00:17:56;6.65;;;3.60;;
19605;SDS011;9950;50.168;8.210;2023-08-24T00:20:23;6.43;;;3.35;;
19605;SDS011;9950;50.168;8.210;2023-08-24T00:22:52;6.15;;;3.67;;
19605;SDS011;9950;50.168;8.210;2023-08-24T00:25:19;5.72;;;3.25;;
19605;SDS011;9950;50.168;8.210;2023-08-24T00:27:47;3.47;;;3.00;;
19605;SDS011;9950;50.168;8.210;2023-08-24T00:30:14;5.72;;;3.60;;
19605;SDS011;9950;50.168;8.210;2023-08-24T00:32:42;7.80;;;3.38;;
19605;SDS011;9950;50.168;8.210;2023-08-24T00:35:10;5.38;;;3.40;;
19605;SDS011;9950;50.168;8.210;2023-08-24T00:37:38;8.20;;;3.92;;
19605;SDS011;9950;50.168;8.210;2023-08-24T00:40:06;7.80;;;3.55;;
19605;SDS011;9950;50.168;8.210;2023-08-24T00:42:36;4.32;;;3.15;;
19605;SDS011;9950;50.168;8.210;2023-08-24T00:45:05;4.80;;;3.35;;
19605;SDS011;9950;50.168;8.210;2023-08-24T00:47:32;5.57;;;3.42;;
19605;SDS011;9950;50.168;8.210;2023-08-24T00:49:59;4.20;;;3.28;;
19605;SDS011;9950;50.168;8.210;2023-08-24T00:52:30;6.78;;;3.55;;
19605;SDS011;9950;50.168;8.210;2023-08-24T00:54:58;3.78;;;3.17;;
19605;SDS011;9950;50.168;8.210;2023-08-24T00:57:25;4.72;;;3.70;;
19605;SDS011;9950;50.168;8.210;2023-08-24T00:59:53;5.80;;;3.90;;
19605;SDS011;9950;50.168;8.210;2023-08-24T01:02:23;4.47;;;3.63;;
19605;SDS011;9950;50.168;8.210;2023-08-24T01:04:50;6.57;;;3.40;;
19605;SDS011;9950;50.168;8.210;2023-08-24T01:07:18;6.47;;;3.65;;
19605;SDS011;9950;50.168;8.210;2023-08-24T01:09:53;6.63;;;4.20;;
19605;SDS011;9950;50.168;8.210;2023-08-24T01:12:25;5.32;;;3.88;;
19605;SDS011;9950;50.168;8.210;2023-08-24T01:14:56;7.18;;;4.25;;
19605;SDS011;9950;50.168;8.210;2023-08-24T01:17:25;8.27;;;3.60;;
19605;SDS011;9950;50.168;8.210;2023-08-24T01:19:54;5.43;;;3.60;;
19605;SDS011;9950;50.168;8.210;2023-08-24T01:22:31;5.57;;;3.30;;
19605;SDS011;9950;50.168;8.210;2023-08-24T01:25:04;5.30;;;3.38;;
19605;SDS011;9950;50.168;8.210;2023-08-24T01:27:34;6.50;;;3.15;;
19605;SDS011;9950;50.168;8.210;2023-08-24T01:30:02;5.93;;;3.60;;
19605;SDS011;9950;50.168;8.210;2023-08-24T01:32:30;5.53;;;3.20;;
19605;SDS011;9950;50.168;8.210;2023-08-24T01:34:58;6.25;;;3.35;;
19605;SDS011;9950;50.168;8.210;2023-08-24T01:37:25;7.28;;;3.70;;
19605;SDS011;9950;50.168;8.210;2023-08-24T01:39:54;7.03;;;3.80;;
19605;SDS011;9950;50.168;8.210;2023-08-24T01:42:29;5.10;;;3.78;;
19605;SDS011;9950;50.168;8.210;2023-08-24T01:44:59;4.20;;;3.13;;
19605;SDS011;9950;50.168;8.210;2023-08-24T01:47:29;5.28;;;3.47;;
19605;SDS011;9950;50.168;8.210;2023-08-24T01:49:57;10.73;;;3.33;;
19605;SDS011;9950;50.168;8.210;2023-08-24T01:52:25;4.20;;;3.40;;
19605;SDS011;9950;50.168;8.210;2023-08-24T01:54:53;5.45;;;3.95;;
19605;SDS011;9950;50.168;8.210;2023-08-24T01:57:20;6.88;;;3.88;;
19605;SDS011;9950;50.168;8.210;2023-08-24T01:59:47;5.07;;;3.40;;
19605;SDS011;9950;50.168;8.210;2023-08-24T02:02:16;4.78;;;3.67;;
19605;SDS011;9950;50.168;8.210;2023-08-24T02:04:43;7.47;;;3.83;;
19605;SDS011;9950;50.168;8.210;2023-08-24T02:07:11;5.43;;;3.30;;
19605;SDS011;9950;50.168;8.210;2023-08-24T02:09:38;4.72;;;3.65;;
19605;SDS011;9950;50.168;8.210;2023-08-24T02:12:05;5.10;;;3.42;;
19605;SDS011;9950;50.168;8.210;2023-08-24T02:14:33;6.85;;;3.50;;
19605;SDS011;9950;50.168;8.210;2023-08-24T02:17:00;5.13;;;3.42;;
19605;SDS011;9950;50.168;8.210;2023-08-24T02:19:29;5.90;;;3.67;;
19605;SDS011;9950;50.168;8.210;2023-08-24T02:21:57;7.38;;;3.70;;
19605;SDS011;9950;50.168;8.210;2023-08-24T02:24:24;5.65;;;3.70;;
19605;SDS011;9950;50.168;8.210;2023-08-24T02:26:52;4.53;;;3.20;;
19605;SDS011;9950;50.168;8.210;2023-08-24T02:29:19;9.50;;;3.58;;
19605;SDS011;9950;50.168;8.210;2023-08-24T02:31:48;6.45;;;3.45;;
19605;SDS011;9950;50.168;8.210;2023-08-24T02:34:16;6.25;;;3.50;;
19605;SDS011;9950;50.168;8.210;2023-08-24T02:36:45;6.18;;;3.00;;
19605;SDS011;9950;50.168;8.210;2023-08-24T02:39:12;5.57;;;3.50;;
19605;SDS011;9950;50.168;8.210;2023-08-24T02:41:39;5.68;;;3.55;;
19605;SDS011;9950;50.168;8.210;2023-08-24T02:44:06;6.10;;;3.70;;
19605;SDS011;9950;50.168;8.210;2023-08-24T02:46:34;4.97;;;3.42;;
19605;SDS011;9950;50.168;8.210;2023-08-24T02:49:01;5.30;;;3.55;;
19605;SDS011;9950;50.168;8.210;2023-08-24T02:51:29;6.28;;;3.78;;
19605;SDS011;9950;50.168;8.210;2023-08-24T02:53:58;8.07;;;4.10;;
19605;SDS011;9950;50.168;8.210;2023-08-24T02:56:26;6.22;;;4.13;;
19605;SDS011;9950;50.168;8.210;2023-08-24T02:58:56;5.00;;;3.67;;
19605;SDS011;9950;50.168;8.210;2023-08-24T03:01:23;5.95;;;4.03;;
19605;SDS011;9950;50.168;8.210;2023-08-24T03:03:51;7.80;;;3.78;;
19605;SDS011;9950;50.168;8.210;2023-08-24T03:06:18;10.98;;;3.70;;
19605;SDS011;9950;50.168;8.210;2023-08-24T03:08:46;7.35;;;4.30;;
19605;SDS011;9950;50.168;8.210;2023-08-24T03:11:14;6.32;;;3.08;;
19605;SDS011;9950;50.168;8.210;2023-08-24T03:13:41;4.80;;;3.35;;
19605;SDS011;9950;50.168;8.210;2023-08-24T03:16:09;4.15;;;3.40;;
19605;SDS011;9950;50.168;8.210;2023-08-24T03:18:36;4.70;;;3.53;;
19605;SDS011;9950;50.168;8.210;2023-08-24T03:21:03;5.63;;;3.80;;
19605;SDS011;9950;50.168;8.210;2023-08-24T03:23:31;4.90;;;3.50;;
19605;SDS011;9950;50.168;8.210;2023-08-24T03:25:58;4.03;;;3.63;;
19605;SDS011;9950;50.168;8.210;2023-08-24T03:28:27;6.88;;;3.78;;
19605;SDS011;9950;50.168;8.210;2023-08-24T03:30:55;7.10;;;4.03;;
19605;SDS011;9950;50.168;8.210;2023-08-24T03:33:22;5.53;;;4.03;;
19605;SDS011;9950;50.168;8.210;2023-08-24T03:35:49;9.20;;;4.72;;
19605;SDS011;9950;50.168;8.210;2023-08-24T03:38:16;6.20;;;3.88;;
19605;SDS011;9950;50.168;8.210;2023-08-24T03:40:44;5.95;;;3.80;;
19605;SDS011;9950;50.168;8.210;2023-08-24T03:43:11;6.63;;;4.15;;
19605;SDS011;9950;50.168;8.210;2023-08-24T03:45:40;7.35;;;3.95;;
19605;SDS011;9950;50.168;8.210;2023-08-24T03:48:09;5.40;;;3.25;;
19605;SDS011;9950;50.168;8.210;2023-08-24T03:50:36;5.82;;;3.60;;
19605;SDS011;9950;50.168;8.210;2023-08-24T03:53:04;5.05;;;3.58;;
19605;SDS011;9950;50.168;8.210;2023-08-24T03:55:31;6.15;;;4.05;;
19605;SDS011;9950;50.168;8.210;2023-08-24T03:57:59;6.68;;;3.80;;
19605;SDS011;9950;50.168;8.210;2023-08-24T04:00:26;8.95;;;3.83;;
19605;SDS011;9950;50.168;8.210;2023-08-24T04:02:58;8.75;;;3.75;;
19605;SDS011;9950;50.168;8.210;2023-08-24T04:05:26;5.63;;;3.92;;
19605;SDS011;9950;50.168;8.210;2023-08-24T04:07:54;5.88;;;4.15;;
19605;SDS011;9950;50.168;8.210;2023-08-24T04:10:21;6.70;;;4.70;;
19605;SDS011;9950;50.168;8.210;2023-08-24T04:12:48;7.85;;;5.03;;
19605;SDS011;9950;50.168;8.210;2023-08-24T04:15:15;7.30;;;4.47;;
19605;SDS011;9950;50.168;8.210;2023-08-24T04:17:43;6.45;;;5.00;;
19605;SDS011;9950;50.168;8.210;2023-08-24T04:20:12;5.53;;;4.70;;
19605;SDS011;9950;50.168;8.210;2023-08-24T04:22:39;5.40;;;4.10;;
19605;SDS011;9950;50.168;8.210;2023-08-24T04:25:07;5.45;;;4.22;;
19605;SDS011;9950;50.168;8.210;2023-08-24T04:27:34;6.45;;;3.80;;
19605;SDS011;9950;50.168;8.210;2023-08-24T04:30:02;5.18;;;4.35;;
19605;SDS011;9950;50.168;8.210;2023-08-24T04:32:31;6.07;;;4.28;;
19605;SDS011;9950;50.168;8.210;2023-08-24T04:34:58;6.43;;;4.30;;
19605;SDS011;9950;50.168;8.210;2023-08-24T04:37:27;5.22;;;3.97;;
19605;SDS011;9950;50.168;8.210;2023-08-24T04:39:54;5.55;;;3.45;;
19605;SDS011;9950;50.168;8.210;2023-08-24T04:42:21;6.30;;;4.10;;
19605;SDS011;9950;50.168;8.210;2023-08-24T04:44:50;5.00;;;3.78;;
19605;SDS011;9950;50.168;8.210;2023-08-24T04:47:17;6.30;;;4.68;;
19605;SDS011;9950;50.168;8.210;2023-08-24T04:49:45;6.70;;;4.50;;
19605;SDS011;9950;50.168;8.210;2023-08-24T04:52:12;9.55;;;5.60;;
19605;SDS011;9950;50.168;8.210;2023-08-24T04:54:40;10.23;;;5.95;;
19605;SDS011;9950;50.168;8.210;2023-08-24T04:57:08;8.35;;;6.18;;
19605;SDS011;9950;50.168;8.210;2023-08-24T04:59:35;10.55;;;6.53;;
19605;SDS011;9950;50.168;8.210;2023-08-24T05:02:02;9.65;;;7.15;;
19605;SDS011;9950;50.168;8.210;2023-08-24T05:04:30;8.73;;;6.57;;
19605;SDS011;9950;50.168;8.210;2023-08-24T05:06:58;7.88;;;6.60;;
19605;SDS011;9950;50.168;8.210;2023-08-24T05:09:25;8.77;;;6.18;;
19605;SDS011;9950;50.168;8.210;2023-08-24T05:11:54;10.48;;;5.85;;
19605;SDS011;9950;50.168;8.210;2023-08-24T05:14:24;8.90;;;5.00;;
19605;SDS011;9950;50.168;8.210;2023-08-24T05:16:51;5.30;;;4.63;;
19605;SDS011;9950;50.168;8.210;2023-08-24T05:19:18;7.22;;;5.00;;
19605;SDS011;9950;50.168;8.210;2023-08-24T05:21:45;8.48;;;4.90;;
19605;SDS011;9950;50.168;8.210;2023-08-24T05:24:13;9.57;;;4.93;;
19605;SDS011;9950;50.168;8.210;2023-08-24T05:26:40;6.05;;;4.68;;
19605;SDS011;9950;50.168;8.210;2023-08-24T05:29:08;5.20;;;4.70;;
19605;SDS011;9950;50.168;8.210;2023-08-24T05:31:36;9.45;;;4.53;;
19605;SDS011;9950;50.168;8.210;2023-08-24T05:34:03;8.52;;;5.63;;
19605;SDS011;9950;50.168;8.210;2023-08-24T05:36:30;6.95;;;4.60;;
19605;SDS011;9950;50.168;8.210;2023-08-24T05:38:58;8.90;;;5.28;;
19605;SDS011;9950;50.168;8.210;2023-08-24T05:41:25;8.73;;;4.72;;
19605;SDS011;9950;50.168;8.210;2023-08-24T05:43:52;6.10;;;5.05;;
19605;SDS011;9950;50.168;8.210;2023-08-24T05:46:21;7.68;;;5.63;;
19605;SDS011;9950;50.168;8.210;2023-08-24T05:48:48;7.43;;;5.55;;
19605;SDS011;9950;50.168;8.210;2023-08-24T05:51:15;9.70;;;6.22;;
19605;SDS011;9950;50.168;8.210;2023-08-24T05:53:43;10.65;;;5.80;;
19605;SDS011;9950;50.168;8.210;2023-08-24T05:56:10;7.18;;;5.30;;
19605;SDS011;9950;50.168;8.210;2023-08-24T05:58:37;8.98;;;6.18;;
19605;SDS011;9950;50.168;8.210;2023-08-24T06:01:04;8.90;;;5.47;;
19605;SDS011;9950;50.168;8.210;2023-08-24T06:03:33;7.10;;;5.57;;
19605;SDS011;9950;50.168;8.210;2023-08-24T06:06:01;13.10;;;6.90;;
19605;SDS011;9950;50.168;8.210;2023-08-24T06:08:29;10.38;;;6.68;;
19605;SDS011;9950;50.168;8.210;2023-08-24T06:10:56;9.43;;;6.75;;
19605;SDS011;9950;50.168;8.210;2023-08-24T06:13:23;8.48;;;6.30;;
19605;SDS011;9950;50.168;8.210;2023-08-24T06:15:51;10.30;;;6.15;;
19605;SDS011;9950;50.168;8.210;2023-08-24T06:18:19;9.35;;;6.78;;
19605;SDS011;9950;50.168;8.210;2023-08-24T06:20:47;11.18;;;7.10;;
19605;SDS011;9950;50.168;8.210;2023-08-24T06:23:15;9.57;;;6.88;;
19605;SDS011;9950;50.168;8.210;2023-08-24T06:25:43;10.90;;;7.05;;
19605;SDS011;9950;50.168;8.210;2023-08-24T06:28:10;7.13;;;6.43;;
19605;SDS011;9950;50.168;8.210;2023-08-24T06:30:37;12.25;;;7.05;;
19605;SDS011;9950;50.168;8.210;2023-08-24T06:33:05;8.63;;;6.85;;
19605;SDS011;9950;50.168;8.210;2023-08-24T06:35:32;9.05;;;7.32;;
19605;SDS011;9950;50.168;8.210;2023-08-24T06:38:01;8.88;;;7.45;;
19605;SDS011;9950;50.168;8.210;2023-08-24T06:40:28;9.52;;;7.00;;
19605;SDS011;9950;50.168;8.210;2023-08-24T06:42:56;11.52;;;7.22;;
19605;SDS011;9950;50.168;8.210;2023-08-24T06:45:23;10.73;;;7.03;;
19605;SDS011;9950;50.168;8.210;2023-08-24T06:47:50;14.13;;;7.68;;
19605;SDS011;9950;50.168;8.210;2023-08-24T06:50:18;10.35;;;7.72;;
19605;SDS011;9950;50.168;8.210;2023-08-24T06:52:46;11.07;;;7.75;;
19605;SDS011;9950;50.168;8.210;2023-08-24T06:55:14;10.02;;;7.60;;
19605;SDS011;9950;50.168;8.210;2023-08-24T06:57:42;15.68;;;9.77;;
19605;SDS011;9950;50.168;8.210;2023-08-24T07:00:09;12.40;;;9.32;;
19605;SDS011;9950;50.168;8.210;2023-08-24T07:02:40;10.90;;;9.30;;
19605;SDS011;9950;50.168;8.210;2023-08-24T07:05:07;12.25;;;9.05;;
19605;SDS011;9950;50.168;8.210;2023-08-24T07:07:35;13.35;;;9.02;;
19605;SDS011;9950;50.168;8.210;2023-08-24T07:10:02;11.55;;;9.43;;
19605;SDS011;9950;50.168;8.210;2023-08-24T07:12:31;12.15;;;9.95;;
19605;SDS011;9950;50.168;8.210;2023-08-24T07:14:58;17.35;;;10.68;;
19605;SDS011;9950;50.168;8.210;2023-08-24T07:17:26;14.15;;;9.95;;
19605;SDS011;9950;50.168;8.210;2023-08-24T07:19:53;13.90;;;10.40;;
19605;SDS011;9950;50.168;8.210;2023-08-24T07:22:20;14.85;;;11.05;;
19605;SDS011;9950;50.168;8.210;2023-08-24T07:24:47;12.60;;;10.00;;
19605;SDS011;9950;50.168;8.210;2023-08-24T07:27:17;11.38;;;9.20;;
19605;SDS011;9950;50.168;8.210;2023-08-24T07:29:46;12.02;;;9.43;;
19605;SDS011;9950;50.168;8.210;2023-08-24T07:32:13;12.43;;;9.70;;
19605;SDS011;9950;50.168;8.210;2023-08-24T07:34:41;11.57;;;10.38;;
19605;SDS011;9950;50.168;8.210;2023-08-24T07:37:08;13.23;;;9.70;;
19605;SDS011;9950;50.168;8.210;2023-08-24T07:39:35;11.23;;;9.98;;
19605;SDS011;9950;50.168;8.210;2023-08-24T07:42:06;10.45;;;9.18;;
19605;SDS011;9950;50.168;8.210;2023-08-24T07:44:33;12.10;;;9.90;;
19605;SDS011;9950;50.168;8.210;2023-08-24T07:47:02;12.30;;;10.75;;
19605;SDS011;9950;50.168;8.210;2023-08-24T07:49:29;18.80;;;11.88;;
19605;SDS011;9950;50.168;8.210;2023-08-24T07:51:57;17.80;;;11.38;;
19605;SDS011;9950;50.168;8.210;2023-08-24T07:54:24;19.35;;;11.85;;
19605;SDS011;9950;50.168;8.210;2023-08-24T07:56:52;20.75;;;12.55;;
19605;SDS011;9950;50.168;8.210;2023-08-24T07:59:19;13.27;;;11.50;;
19605;SDS011;9950;50.168;8.210;2023-08-24T08:01:46;15.75;;;11.48;;
19605;SDS011;9950;50.168;8.210;2023-08-24T08:04:15;14.38;;;12.38;;
19605;SDS011;9950;50.168;8.210;2023-08-24T08:06:42;13.60;;;12.05;;
19605;SDS011;9950;50.168;8.210;2023-08-24T08:09:10;13.30;;;10.80;;
19605;SDS011;9950;50.168;8.210;2023-08-24T08:11:38;12.63;;;11.20;;
19605;SDS011;9950;50.168;8.210;2023-08-24T08:14:05;11.43;;;10.25;;
19605;SDS011;9950;50.168;8.210;2023-08-24T08:16:32;12.63;;;10.05;;
19605;SDS011;9950;50.168;8.210;2023-08-24T08:19:01;8.27;;;7.43;;
19605;SDS011;9950;50.168;8.210;2023-08-24T08:21:30;9.80;;;6.53;;
19605;SDS011;9950;50.168;8.210;2023-08-24T08:23:57;7.35;;;5.43;;
19605;SDS011;9950;50.168;8.210;2023-08-24T08:26:24;6.75;;;5.38;;
19605;SDS011;9950;50.168;8.210;2023-08-24T08:28:52;7.75;;;5.20;;
19605;SDS011;9950;50.168;8.210;2023-08-24T08:31:19;8.60;;;5.20;;
19605;SDS011;9950;50.168;8.210;2023-08-24T08:33:47;5.15;;;4.65;;
19605;SDS011;9950;50.168;8.210;2023-08-24T08:36:14;6.88;;;3.28;;
19605;SDS011;9950;50.168;8.210;2023-08-24T08:38:43;6.75;;;3.50;;
19605;SDS011;9950;50.168;8.210;2023-08-24T08:41:10;4.78;;;3.10;;
19605;SDS011;9950;50.168;8.210;2023-08-24T08:43:37;3.63;;;2.72;;
19605;SDS011;9950;50.168;8.210;2023-08-24T08:46:05;5.18;;;2.90;;
19605;SDS011;9950;50.168;8.210;2023-08-24T08:48:32;3.28;;;2.58;;
19605;SDS011;9950;50.168;8.210;2023-08-24T08:51:00;3.80;;;2.70;;
19605;SDS011;9950;50.168;8.210;2023-08-24T08:53:27;5.10;;;2.92;;
19605;SDS011;9950;50.168;8.210;2023-08-24T08:55:56;5.15;;;2.90;;
19605;SDS011;9950;50.168;8.210;2023-08-24T08:58:28;6.22;;;2.55;;
19605;SDS011;9950;50.168;8.210;2023-08-24T09:00:56;5.70;;;2.70;;
19605;SDS011;9950;50.168;8.210;2023-08-24T09:03:25;3.38;;;2.40;;
19605;SDS011;9950;50.168;8.210;2023-08-24T09:05:53;3.33;;;2.60;;
19605;SDS011;9950;50.168;8.210;2023-08-24T09:08:20;5.43;;;2.60;;
19605;SDS011;9950;50.168;8.210;2023-08-24T09:10:47;4.43;;;2.78;;
19605;SDS011;9950;50.168;8.210;2023-08-24T09:13:16;3.08;;;2.65;;
19605;SDS011;9950;50.168;8.210;2023-08-24T09:15:43;3.45;;;2.60;;
19605;SDS011;9950;50.168;8.210;2023-08-24T09:18:11;4.57;;;2.70;;
19605;SDS011;9950;50.168;8.210;2023-08-24T09:20:38;4.32;;;2.75;;
19605;SDS011;9950;50.168;8.210;2023-08-24T09:23:06;2.90;;;2.60;;
19605;SDS011;9950;50.168;8.210;2023-08-24T09:25:44;5.70;;;2.80;;
19605;SDS011;9950;50.168;8.210;2023-08-24T09:28:12;3.10;;;2.40;;
19605;SDS011;9950;50.168;8.210;2023-08-24T09:30:41;6.00;;;2.70;;
19605;SDS011;9950;50.168;8.210;2023-08-24T09:33:12;5.05;;;2.30;;
19605;SDS011;9950;50.168;8.210;2023-08-24T09:35:42;3.40;;;2.55;;
19605;SDS011;9950;50.168;8.210;2023-08-24T09:38:17;5.57;;;2.80;;
19605;SDS011;9950;50.168;8.210;2023-08-24T09:40:44;5.72;;;2.30;;
19605;SDS011;9950;50.168;8.210;2023-08-24T09:43:13;2.90;;;1.85;;
19605;SDS011;9950;50.168;8.210;2023-08-24T09:45:48;2.45;;;2.10;;
19605;SDS011;9950;50.168;8.210;2023-08-24T09:48:16;2.58;;;2.03;;
19605;SDS011;9950;50.168;8.210;2023-08-24T09:50:44;5.60;;;2.22;;
19605;SDS011;9950;50.168;8.210;2023-08-24T09:53:14;2.22;;;1.88;;
19605;SDS011;9950;50.168;8.210;2023-08-24T09:55:43;4.47;;;2.28;;
19605;SDS011;9950;50.168;8.210;2023-08-24T09:58:11;3.05;;;2.17;;
19605;SDS011;9950;50.168;8.210;2023-08-24T10:00:38;3.08;;;2.20;;
19605;SDS011;9950;50.168;8.210;2023-08-24T10:03:07;7.32;;;2.58;;
19605;SDS011;9950;50.168;8.210;2023-08-24T10:05:35;4.22;;;2.08;;
19605;SDS011;9950;50.168;8.210;2023-08-24T10:08:03;5.35;;;2.28;;
19605;SDS011;9950;50.168;8.210;2023-08-24T10:10:30;5.30;;;2.78;;
19605;SDS011;9950;50.168;8.210;2023-08-24T10:12:59;4.45;;;2.40;;
19605;SDS011;9950;50.168;8.210;2023-08-24T10:15:28;6.10;;;2.15;;
19605;SDS011;9950;50.168;8.210;2023-08-24T10:17:57;5.00;;;2.05;;
19605;SDS011;9950;50.168;8.210;2023-08-24T10:20:27;4.47;;;2.10;;
19605;SDS011;9950;50.168;8.210;2023-08-24T10:22:54;3.92;;;2.33;;
19605;SDS011;9950;50.168;8.210;2023-08-24T10:25:22;3.47;;;2.00;;
19605;SDS011;9950;50.168;8.210;2023-08-24T10:27:50;3.58;;;2.25;;
19605;SDS011;9950;50.168;8.210;2023-08-24T10:30:19;5.43;;;2.53;;
19605;SDS011;9950;50.168;8.210;2023-08-24T10:32:47;2.58;;;1.90;;
19605;SDS011;9950;50.168;8.210;2023-08-24T10:35:18;5.10;;;2.13;;
19605;SDS011;9950;50.168;8.210;2023-08-24T10:37:47;3.67;;;2.22;;
19605;SDS011;9950;50.168;8.210;2023-08-24T10:40:14;5.18;;;2.35;;
19605;SDS011;9950;50.168;8.210;2023-08-24T10:42:57;2.75;;;2.10;;
19605;SDS011;9950;50.168;8.210;2023-08-24T10:45:25;5.03;;;2.45;;
19605;SDS011;9950;50.168;8.210;2023-08-24T10:47:52;3.50;;;2.35;;
19605;SDS011;9950;50.168;8.210;2023-08-24T10:50:21;2.88;;;2.10;;
19605;SDS011;9950;50.168;8.210;2023-08-24T10:52:50;4.55;;;2.40;;
19605;SDS011;9950;50.168;8.210;2023-08-24T10:55:25;4.93;;;2.38;;
19605;SDS011;9950;50.168;8.210;2023-08-24T10:57:57;3.63;;;2.22;;
19605;SDS011;9950;50.168;8.210;2023-08-24T11:00:25;5.15;;;2.58;;
19605;SDS011;9950;50.168;8.210;2023-08-24T11:02:53;3.22;;;2.00;;
19605;SDS011;9950;50.168;8.210;2023-08-24T11:05:21;5.22;;;2.47;;
19605;SDS011;9950;50.168;8.210;2023-08-24T11:07:52;4.50;;;2.33;;
19605;SDS011;9950;50.168;8.210;2023-08-24T11:10:19;4.05;;;2.40;;
19605;SDS011;9950;50.168;8.210;2023-08-24T11:15:33;5.18;;;2.40;;
19605;SDS011;9950;50.168;8.210;2023-08-24T11:18:13;3.03;;;2.33;;
19605;SDS011;9950;50.168;8.210;2023-08-24T11:20:42;4.35;;;2.67;;
19605;SDS011;9950;50.168;8.210;2023-08-24T11:23:11;3.65;;;2.72;;
19605;SDS011;9950;50.168;8.210;2023-08-24T11:25:38;4.18;;;2.60;;
19605;SDS011;9950;50.168;8.210;2023-08-24T11:28:05;4.63;;;2.65;;
19605;SDS011;9950;50.168;8.210;2023-08-24T11:30:33;3.67;;;2.58;;
19605;SDS011;9950;50.168;8.210;2023-08-24T11:33:01;4.38;;;2.70;;
19605;SDS011;9950;50.168;8.210;2023-08-24T11:35:29;4.82;;;2.80;;
19605;SDS011;9950;50.168;8.210;2023-08-24T11:37:56;4.07;;;2.70;;
19605;SDS011;9950;50.168;8.210;2023-08-24T11:40:25;5.32;;;3.10;;
19605;SDS011;9950;50.168;8.210;2023-08-24T11:42:53;5.47;;;2.88;;
19605;SDS011;9950;50.168;8.210;2023-08-24T11:45:21;4.50;;;2.95;;
19605;SDS011;9950;50.168;8.210;2023-08-24T11:47:49;5.57;;;3.10;;
19605;SDS011;9950;50.168;8.210;2023-08-24T11:50:16;4.28;;;2.90;;
19605;SDS011;9950;50.168;8.210;2023-08-24T11:52:44;10.93;;;3.22;;
19605;SDS011;9950;50.168;8.210;2023-08-24T11:55:11;5.32;;;3.08;;
19605;SDS011;9950;50.168;8.210;2023-08-24T11:57:41;4.25;;;2.88;;
19605;SDS011;9950;50.168;8.210;2023-08-24T12:00:09;3.58;;;2.95;;
19605;SDS011;9950;50.168;8.210;2023-08-24T12:02:38;5.60;;;2.88;;
19605;SDS011;9950;50.168;8.210;2023-08-24T12:05:06;3.20;;;2.67;;
19605;SDS011;9950;50.168;8.210;2023-08-24T12:07:34;5.15;;;3.00;;
19605;SDS011;9950;50.168;8.210;2023-08-24T12:10:01;4.53;;;3.10;;
19605;SDS011;9950;50.168;8.210;2023-08-24T12:12:29;4.97;;;2.88;;
19605;SDS011;9950;50.168;8.210;2023-08-24T12:14:57;3.83;;;2.88;;
19605;SDS011;9950;50.168;8.210;2023-08-24T12:17:25;4.70;;;3.00;;
19605;SDS011;9950;50.168;8.210;2023-08-24T12:19:57;5.93;;;3.20;;
19605;SDS011;9950;50.168;8.210;2023-08-24T12:22:25;6.10;;;3.50;;
19605;SDS011;9950;50.168;8.210;2023-08-24T12:24:53;7.18;;;2.88;;
19605;SDS011;9950;50.168;8.210;2023-08-24T12:27:20;4.57;;;3.10;;
19605;SDS011;9950;50.168;8.210;2023-08-24T12:29:52;4.68;;;3.20;;
19605;SDS011;9950;50.168;8.210;2023-08-24T12:32:21;5.40;;;3.60;;
19605;SDS011;9950;50.168;8.210;2023-08-24T12:34:50;7.72;;;3.38;;
19605;SDS011;9950;50.168;8.210;2023-08-24T12:37:19;4.57;;;3.20;;
19605;SDS011;9950;50.168;8.210;2023-08-24T12:39:47;7.35;;;3.20;;
19605;SDS011;9950;50.168;8.210;2023-08-24T12:42:14;4.55;;;3.13;;
19605;SDS011;9950;50.168;8.210;2023-08-24T12:44:41;4.07;;;3.40;;
19605;SDS011;9950;50.168;8.210;2023-08-24T12:47:09;7.80;;;3.70;;
19605;SDS011;9950;50.168;8.210;2023-08-24T12:49:37;5.50;;;3.45;;
19605;SDS011;9950;50.168;8.210;2023-08-24T12:52:05;5.78;;;3.85;;
19605;SDS011;9950;50.168;8.210;2023-08-24T12:54:32;5.93;;;4.03;;
19605;SDS011;9950;50.168;8.210;2023-08-24T12:56:59;6.82;;;3.83;;
19605;SDS011;9950;50.168;8.210;2023-08-24T12:59:27;5.63;;;3.60;;
19605;SDS011;9950;50.168;8.210;2023-08-24T13:01:54;5.65;;;3.67;;
19605;SDS011;9950;50.168;8.210;2023-08-24T13:04:21;5.57;;;3.58;;
19605;SDS011;9950;50.168;8.210;2023-08-24T13:06:50;7.90;;;3.72;;
19605;SDS011;9950;50.168;8.210;2023-08-24T13:09:17;5.00;;;3.70;;
19605;SDS011;9950;50.168;8.210;2023-08-24T13:11:45;5.97;;;3.80;;
19605;SDS011;9950;50.168;8.210;2023-08-24T13:14:13;5.13;;;3.42;;
19605;SDS011;9950;50.168;8.210;2023-08-24T13:16:40;4.38;;;3.80;;
19605;SDS011;9950;50.168;8.210;2023-08-24T13:19:08;5.30;;;4.05;;
19605;SDS011;9950;50.168;8.210;2023-08-24T13:21:35;6.20;;;4.00;;
19605;SDS011;9950;50.168;8.210;2023-08-24T13:24:04;6.18;;;3.80;;
19605;SDS011;9950;50.168;8.210;2023-08-24T13:26:31;5.65;;;4.43;;
19605;SDS011;9950;50.168;8.210;2023-08-24T13:28:58;5.10;;;3.45;;
19605;SDS011;9950;50.168;8.210;2023-08-24T13:31:26;7.10;;;3.78;;
19605;SDS011;9950;50.168;8.210;2023-08-24T13:33:55;7.10;;;4.35;;
19605;SDS011;9950;50.168;8.210;2023-08-24T13:36:22;7.30;;;4.15;;
19605;SDS011;9950;50.168;8.210;2023-08-24T13:38:50;5.32;;;3.70;;
19605;SDS011;9950;50.168;8.210;2023-08-24T13:41:19;6.60;;;3.70;;
19605;SDS011;9950;50.168;8.210;2023-08-24T13:43:46;5.78;;;3.42;;
19605;SDS011;9950;50.168;8.210;2023-08-24T13:46:13;5.43;;;3.60;;
19605;SDS011;9950;50.168;8.210;2023-08-24T13:48:41;5.63;;;3.63;;
19605;SDS011;9950;50.168;8.210;2023-08-24T13:51:08;4.88;;;3.55;;
19605;SDS011;9950;50.168;8.210;2023-08-24T13:53:37;6.95;;;3.90;;
19605;SDS011;9950;50.168;8.210;2023-08-24T13:56:04;7.53;;;3.63;;
19605;SDS011;9950;50.168;8.210;2023-08-24T13:58:33;6.57;;;3.50;;
19605;SDS011;9950;50.168;8.210;2023-08-24T14:01:00;5.97;;;3.65;;
19605;SDS011;9950;50.168;8.210;2023-08-24T14:03:29;5.13;;;3.33;;
19605;SDS011;9950;50.168;8.210;2023-08-24T14:05:56;5.05;;;3.63;;
19605;SDS011;9950;50.168;8.210;2023-08-24T14:08:24;4.85;;;3.10;;
19605;SDS011;9950;50.168;8.210;2023-08-24T14:10:51;4.95;;;3.35;;
19605;SDS011;9950;50.168;8.210;2023-08-24T14:13:19;5.07;;;3.80;;
19605;SDS011;9950;50.168;8.210;2023-08-24T14:15:48;6.70;;;3.80;;
19605;SDS011;9950;50.168;8.210;2023-08-24T14:18:16;5.90;;;3.70;;
19605;SDS011;9950;50.168;8.210;2023-08-24T14:20:43;4.60;;;3.47;;
19605;SDS011;9950;50.168;8.210;2023-08-24T14:23:11;5.07;;;3.50;;
19605;SDS011;9950;50.168;8.210;2023-08-24T14:25:38;4.72;;;3.50;;
19605;SDS011;9950;50.168;8.210;2023-08-24T14:28:05;6.13;;;3.92;;
19605;SDS011;9950;50.168;8.210;2023-08-24T14:30:33;5.93;;;3.72;;
19605;SDS011;9950;50.168;8.210;2023-08-24T14:33:02;4.95;;;3.55;;
19605;SDS011;9950;50.168;8.210;2023-08-24T14:35:29;7.55;;;3.75;;
19605;SDS011;9950;50.168;8.210;2023-08-24T14:37:57;7.40;;;3.97;;
19605;SDS011;9950;50.168;8.210;2023-08-24T14:40:24;6.07;;;3.70;;
19605;SDS011;9950;50.168;8.210;2023-08-24T14:42:52;5.35;;;3.80;;
19605;SDS011;9950;50.168;8.210;2023-08-24T14:45:20;5.93;;;3.63;;
19605;SDS011;9950;50.168;8.210;2023-08-24T14:47:47;5.68;;;4.18;;
19605;SDS011;9950;50.168;8.210;2023-08-24T14:50:16;6.18;;;3.78;;
19605;SDS011;9950;50.168;8.210;2023-08-24T14:52:43;6.38;;;4.03;;
19605;SDS011;9950;50.168;8.210;2023-08-24T14:55:10;9.57;;;4.10;;
19605;SDS011;9950;50.168;8.210;2023-08-24T14:57:38;6.82;;;3.92;;
19605;SDS011;9950;50.168;8.210;2023-08-24T15:00:06;6.53;;;4.53;;
19605;SDS011;9950;50.168;8.210;2023-08-24T15:02:38;10.23;;;4.00;;
19605;SDS011;9950;50.168;8.210;2023-08-24T15:05:10;7.35;;;4.30;;